Cobbs Creek, Virginia
Current Conditions -  °F | °C
As of 12:55 AM on Sunday 23 Nov 2014 (Local Time) from KW75 Reporting Station
Clear Clear  
Wind Chill: 34°   Ceiling: Unl
Heat Index: 39°   Visibility: 10mi
Dew Point: 21°   Wind: 7mph
Humidity: 50%   Direction: 210°SSW
Pressure: 30.3"   Gusts: NA
Location:  37.51°N, 76.4°W
Report Text: KW75 230555Z AUTO 21006KT 10SM CLR 04/M06 A3030 RMK AO1 T00371060 10043 21013
Loading
Personal Weather Stations






























Interactive Weather Map New forecast layout! Learn more

10-Day Weather Forecast

Advertisements
Track Severe Weather on mobile